Terminal Aerodrome Forecast
Issued by NWS Quad Cities IA IL

Home | Current Version | Previous Version | Text Only | Print | Product List | Glossary On
Versions: 1 2 3 4 5 6 7 8 9 10 11 12 13 14 15 16 17 18 19 20 21 22 23 24 25 26 27
000
FTUS43 KDVN 302100 CCA
TAFDBQ
TAF COR
KDBQ 302101Z 3021/3118 24011KT P6SM SCT035
     FM310600 VRB03KT 5SM BR SKC
     FM310800 VRB02KT 3SM BR SCT250
      TEMPO 3109/3113 1/2SM FG SCT001
     FM311400 20006KT P6SM SCT050=

USA.gov is the U.S. government's official web portal to all federal, state and local government web resources and services.